createdAt,value
2022-12-29T00:00:37.341Z,15.30
2022-12-29T00:03:10.072Z,15.30
2022-12-29T00:05:42.636Z,15.30
2022-12-29T00:08:15.180Z,15.30
2022-12-29T00:10:47.707Z,15.30
2022-12-29T00:13:38.688Z,15.30
2022-12-29T00:16:11.230Z,15.30
2022-12-29T00:18:43.922Z,15.30
2022-12-29T00:21:37.708Z,15.30
2022-12-29T00:24:23.604Z,15.30
2022-12-29T00:27:29.283Z,15.30
2022-12-29T00:30:20.058Z,15.30
2022-12-29T00:33:10.685Z,15.20
2022-12-29T00:35:53.804Z,15.20
2022-12-29T00:38:45.591Z,15.20
2022-12-29T00:41:36.429Z,15.20
2022-12-29T00:44:11.470Z,15.20
2022-12-29T00:46:44.584Z,15.10
2022-12-29T00:49:32.306Z,15.10
2022-12-29T00:52:10.597Z,15.10
2022-12-29T00:54:46.088Z,15.10
2022-12-29T00:57:19.731Z,15.10
2022-12-29T00:59:52.267Z,15.10
2022-12-29T01:02:24.983Z,15.10
2022-12-29T01:04:57.714Z,15.10
2022-12-29T01:07:30.261Z,15.00
2022-12-29T01:10:11.516Z,15.00
2022-12-29T01:12:46.246Z,15.00
2022-12-29T01:15:19.442Z,15.00
2022-12-29T01:17:52.036Z,15.00
2022-12-29T01:20:24.605Z,15.00
2022-12-29T01:22:57.228Z,15.00
2022-12-29T01:25:30.047Z,15.00
2022-12-29T01:28:02.884Z,15.00
2022-12-29T01:30:38.435Z,15.00
2022-12-29T01:33:11.057Z,15.00
2022-12-29T01:35:45.952Z,14.90
2022-12-29T01:38:18.811Z,14.90
2022-12-29T01:40:51.609Z,14.90
2022-12-29T01:43:43.236Z,14.90
2022-12-29T01:46:25.199Z,14.90
2022-12-29T01:49:06.750Z,14.90
2022-12-29T01:51:45.008Z,14.90
2022-12-29T01:54:27.990Z,14.90
2022-12-29T01:57:03.934Z,14.90
2022-12-29T01:59:44.585Z,14.90
2022-12-29T02:02:17.982Z,14.80
2022-12-29T02:04:51.436Z,14.80
2022-12-29T02:07:28.419Z,14.80
2022-12-29T02:10:02.912Z,14.80
2022-12-29T02:12:36.099Z,14.80
2022-12-29T02:15:09.685Z,14.80
2022-12-29T02:18:04.448Z,14.80
2022-12-29T02:20:45.935Z,14.80
2022-12-29T02:23:32.250Z,14.80
2022-12-29T02:26:28.071Z,14.80
2022-12-29T02:29:37.290Z,14.70
2022-12-29T02:32:20.580Z,14.70
2022-12-29T02:34:59.045Z,14.70
2022-12-29T02:37:57.585Z,14.70
2022-12-29T02:40:44.618Z,14.70
2022-12-29T02:43:51.505Z,14.70
2022-12-29T02:46:45.572Z,14.70
2022-12-29T02:49:34.221Z,14.70
2022-12-29T02:52:13.081Z,14.60
2022-12-29T02:54:46.129Z,14.70
2022-12-29T02:57:22.372Z,14.60
2022-12-29T02:59:58.125Z,14.70
2022-12-29T03:02:58.297Z,14.60
2022-12-29T03:05:42.872Z,14.70
2022-12-29T03:08:28.047Z,14.70
2022-12-29T03:11:06.845Z,14.70
2022-12-29T03:14:04.622Z,14.70
2022-12-29T03:16:57.090Z,14.70
2022-12-29T03:19:39.004Z,14.70
2022-12-29T03:22:28.554Z,14.70
2022-12-29T03:25:20.179Z,14.70
2022-12-29T03:28:33.743Z,14.70
2022-12-29T03:31:10.106Z,14.60
2022-12-29T03:33:46.457Z,14.60
2022-12-29T03:36:45.310Z,14.70
2022-12-29T03:39:19.744Z,14.70
2022-12-29T03:41:59.526Z,14.70
2022-12-29T03:44:41.263Z,14.70
2022-12-29T03:47:16.273Z,14.60
2022-12-29T03:49:52.619Z,14.60
2022-12-29T03:52:25.377Z,14.60
2022-12-29T03:54:59.397Z,14.60
2022-12-29T03:57:32.133Z,14.50
2022-12-29T04:00:12.494Z,14.50
2022-12-29T04:02:47.903Z,14.50
2022-12-29T04:05:26.331Z,14.50
2022-12-29T04:08:01.252Z,14.50
2022-12-29T04:10:33.832Z,14.50
2022-12-29T04:13:09.522Z,14.50
2022-12-29T04:15:43.751Z,14.50
2022-12-29T04:18:17.370Z,14.40
2022-12-29T04:21:03.997Z,14.40
2022-12-29T04:23:40.694Z,14.40
2022-12-29T04:26:15.160Z,14.40
2022-12-29T04:29:06.185Z,14.40
2022-12-29T04:31:59.053Z,14.40
2022-12-29T04:34:31.861Z,14.40
2022-12-29T04:37:04.737Z,14.30
2022-12-29T04:39:37.632Z,14.30
2022-12-29T04:42:11.607Z,14.30
2022-12-29T04:44:45.384Z,14.40
2022-12-29T04:47:38.298Z,14.30
2022-12-29T04:50:30.621Z,14.40
2022-12-29T04:53:24.049Z,14.30
2022-12-29T04:55:59.115Z,14.30
2022-12-29T04:58:31.951Z,14.30
2022-12-29T05:01:05.685Z,14.30
2022-12-29T05:03:38.527Z,14.30
2022-12-29T05:06:11.724Z,14.30
2022-12-29T05:08:44.477Z,14.30
2022-12-29T05:11:17.067Z,14.30
2022-12-29T05:13:52.018Z,14.30
2022-12-29T05:16:24.685Z,14.30
2022-12-29T05:18:59.154Z,14.30
2022-12-29T05:21:31.848Z,14.20
2022-12-29T05:24:05.890Z,14.20
2022-12-29T05:26:38.622Z,14.20
2022-12-29T05:29:17.328Z,14.10
2022-12-29T05:31:51.370Z,14.10
2022-12-29T05:34:24.321Z,14.10
2022-12-29T05:36:57.361Z,14.00
2022-12-29T05:39:30.651Z,14.00
2022-12-29T05:42:06.912Z,14.00
2022-12-29T05:45:03.147Z,14.00
2022-12-29T05:47:54.307Z,14.00
2022-12-29T05:50:32.472Z,14.00
2022-12-29T05:53:21.272Z,14.00
2022-12-29T05:55:53.890Z,14.00
2022-12-29T05:58:26.685Z,14.00
2022-12-29T06:00:59.675Z,14.00
2022-12-29T06:03:32.467Z,14.00
2022-12-29T06:06:05.852Z,14.00
2022-12-29T06:08:38.365Z,14.00
2022-12-29T06:11:11.242Z,13.90
2022-12-29T06:13:47.062Z,13.90
2022-12-29T06:16:19.940Z,13.90
2022-12-29T06:18:54.768Z,13.90
2022-12-29T06:21:28.060Z,13.90
2022-12-29T06:24:00.725Z,13.90
2022-12-29T06:26:33.350Z,13.90
2022-12-29T06:29:06.062Z,13.90
2022-12-29T06:31:39.116Z,14.00
2022-12-29T06:34:11.701Z,14.00
2022-12-29T06:36:44.396Z,14.00
2022-12-29T06:39:17.011Z,14.00
2022-12-29T06:41:56.866Z,14.00
2022-12-29T06:44:46.744Z,14.00
2022-12-29T06:47:19.933Z,14.00
2022-12-29T06:49:52.475Z,14.10
2022-12-29T06:52:25.460Z,14.10
2022-12-29T06:54:58.044Z,14.10
2022-12-29T06:57:30.622Z,14.20
2022-12-29T07:00:04.528Z,14.30
2022-12-29T07:02:37.182Z,14.40
2022-12-29T07:05:15.854Z,14.50
2022-12-29T07:07:51.563Z,14.70
2022-12-29T07:10:24.662Z,14.90
2022-12-29T07:12:57.292Z,15.10
2022-12-29T07:15:29.930Z,15.20
2022-12-29T07:18:02.586Z,15.40
2022-12-29T07:20:35.326Z,15.50
2022-12-29T07:23:07.941Z,15.60
2022-12-29T07:25:42.035Z,15.70
2022-12-29T07:28:14.572Z,15.90
2022-12-29T07:30:47.887Z,16.00
2022-12-29T07:33:20.267Z,16.10
2022-12-29T07:35:52.795Z,16.30
2022-12-29T07:38:26.331Z,16.40
2022-12-29T07:40:59.966Z,16.50
2022-12-29T07:43:32.559Z,16.60
2022-12-29T07:46:56.377Z,16.70
2022-12-29T07:49:17.994Z,16.80
2022-12-29T07:51:50.631Z,16.90
2022-12-29T07:54:24.151Z,17.00
2022-12-29T07:56:56.927Z,17.10
2022-12-29T07:59:29.706Z,17.20
2022-12-29T08:02:02.769Z,17.30
2022-12-29T08:04:35.312Z,17.40
2022-12-29T08:07:08.084Z,17.60
2022-12-29T08:09:40.780Z,17.60
2022-12-29T08:12:13.295Z,17.70
2022-12-29T08:14:46.242Z,17.80
2022-12-29T08:17:18.914Z,17.90
2022-12-29T08:19:51.591Z,18.00
2022-12-29T08:22:24.407Z,18.10
2022-12-29T08:24:57.066Z,18.20
2022-12-29T08:27:29.581Z,18.30
2022-12-29T08:30:02.325Z,18.40
2022-12-29T08:32:35.004Z,18.50
2022-12-29T08:35:07.906Z,18.50
2022-12-29T08:37:40.487Z,18.60
2022-12-29T08:40:13.227Z,18.70
2022-12-29T08:42:45.894Z,18.80
2022-12-29T08:45:18.592Z,18.80
2022-12-29T08:47:51.396Z,18.90
2022-12-29T08:50:23.993Z,18.90
2022-12-29T08:52:56.576Z,19.00
2022-12-29T08:55:29.033Z,19.00
2022-12-29T08:58:02.152Z,19.10
2022-12-29T09:00:34.881Z,19.20
2022-12-29T09:03:08.248Z,19.20
2022-12-29T09:05:41.061Z,19.20
2022-12-29T09:08:13.592Z,19.30
2022-12-29T09:10:46.775Z,19.30
2022-12-29T09:13:19.697Z,19.30
2022-12-29T09:16:00.694Z,19.40
2022-12-29T09:18:33.342Z,19.40
2022-12-29T09:21:07.368Z,19.50
2022-12-29T09:23:41.790Z,19.50
2022-12-29T09:26:14.405Z,19.50
2022-12-29T09:28:48.233Z,19.50
2022-12-29T09:31:20.984Z,19.60
2022-12-29T09:33:53.778Z,19.60
2022-12-29T09:36:26.429Z,19.70
2022-12-29T09:38:58.977Z,19.70
2022-12-29T09:41:39.765Z,19.80
2022-12-29T09:44:25.529Z,19.80
2022-12-29T09:46:59.256Z,19.80
2022-12-29T09:49:41.028Z,19.90
2022-12-29T09:52:36.618Z,19.90
2022-12-29T09:55:17.257Z,20.00
2022-12-29T10:02:16.287Z,20.10
2022-12-29T10:04:48.970Z,20.20
2022-12-29T10:07:56.689Z,20.20
2022-12-29T10:10:43.364Z,20.30
2022-12-29T10:13:37.798Z,20.30
2022-12-29T10:16:21.348Z,20.30
2022-12-29T10:19:03.191Z,20.30
2022-12-29T10:22:04.662Z,20.40
2022-12-29T10:24:40.152Z,20.40
2022-12-29T10:27:16.614Z,20.40
2022-12-29T10:29:57.324Z,20.40
2022-12-29T10:32:41.786Z,20.40
2022-12-29T10:35:38.541Z,20.30
2022-12-29T10:38:32.342Z,20.30
2022-12-29T10:41:19.763Z,20.30
2022-12-29T10:43:58.265Z,20.30
2022-12-29T10:46:37.168Z,20.30
2022-12-29T10:49:21.602Z,20.30
2022-12-29T10:51:58.360Z,20.20
2022-12-29T10:54:37.791Z,20.20
2022-12-29T10:57:16.246Z,20.20
2022-12-29T10:59:48.887Z,20.20
2022-12-29T11:02:56.837Z,20.20
2022-12-29T11:05:57.459Z,20.10
2022-12-29T11:08:37.444Z,20.00
2022-12-29T11:11:11.627Z,20.00
2022-12-29T11:13:59.707Z,19.90
2022-12-29T11:16:35.509Z,19.90
2022-12-29T11:19:24.540Z,19.80
2022-12-29T11:22:13.042Z,19.80
2022-12-29T11:24:47.139Z,19.70
2022-12-29T11:27:25.566Z,19.70
2022-12-29T11:29:58.093Z,19.60
2022-12-29T11:32:31.172Z,19.60
2022-12-29T11:35:05.290Z,19.60
2022-12-29T11:37:41.405Z,19.50
2022-12-29T11:40:22.028Z,19.50
2022-12-29T11:42:58.100Z,19.40
2022-12-29T11:45:36.668Z,19.40
2022-12-29T11:48:20.359Z,19.40
2022-12-29T11:51:00.809Z,19.30
2022-12-29T11:53:48.382Z,19.30
2022-12-29T11:56:39.983Z,19.30
2022-12-29T11:59:35.502Z,19.20
2022-12-29T12:02:42.536Z,19.20
2022-12-29T12:05:34.905Z,19.20
2022-12-29T12:08:32.782Z,19.20
2022-12-29T12:11:13.429Z,19.20
2022-12-29T12:14:02.079Z,19.20
2022-12-29T12:17:38.745Z,19.20
2022-12-29T12:20:51.784Z,19.10
2022-12-29T12:23:41.918Z,19.10
2022-12-29T12:26:17.204Z,19.10
2022-12-29T12:28:58.777Z,19.10
2022-12-29T12:32:01.068Z,19.10
2022-12-29T12:34:53.933Z,19.00
2022-12-29T12:37:44.331Z,18.90
2022-12-29T12:40:36.188Z,18.80
2022-12-29T12:43:31.416Z,18.70
2022-12-29T12:46:23.157Z,18.50
2022-12-29T12:49:13.387Z,18.50
2022-12-29T12:51:45.876Z,18.50
2022-12-29T12:54:42.222Z,18.50
2022-12-29T12:57:21.888Z,18.40
2022-12-29T13:00:01.492Z,18.30
2022-12-29T13:02:44.883Z,18.30
2022-12-29T13:05:20.050Z,18.20
2022-12-29T13:08:15.306Z,18.20
2022-12-29T13:11:09.407Z,18.10
2022-12-29T13:14:01.774Z,18.00
2022-12-29T13:16:55.141Z,17.90
2022-12-29T13:19:42.900Z,17.80
2022-12-29T13:22:39.919Z,17.80
2022-12-29T13:25:33.314Z,17.80
2022-12-29T13:28:23.314Z,17.80
2022-12-29T13:31:01.847Z,17.80
2022-12-29T13:34:00.232Z,17.70
2022-12-29T13:36:50.820Z,17.70
2022-12-29T13:39:29.223Z,17.70
2022-12-29T13:42:04.080Z,17.70
2022-12-29T13:44:42.819Z,17.70
2022-12-29T13:47:32.017Z,17.70
2022-12-29T13:50:08.168Z,17.70
2022-12-29T13:52:51.036Z,17.70
2022-12-29T13:55:33.675Z,17.70
2022-12-29T13:58:08.921Z,17.70
2022-12-29T14:00:47.995Z,17.60
2022-12-29T14:03:30.770Z,17.60
2022-12-29T14:06:20.377Z,17.60
2022-12-29T14:08:59.279Z,17.60
2022-12-29T14:11:42.073Z,17.60
2022-12-29T14:14:24.766Z,17.60
2022-12-29T14:17:14.702Z,17.60
2022-12-29T14:19:53.488Z,17.50
2022-12-29T14:22:32.918Z,17.50
2022-12-29T14:25:06.353Z,17.40
2022-12-29T14:27:52.379Z,17.40
2022-12-29T14:30:53.415Z,17.40
2022-12-29T14:33:30.905Z,17.40
2022-12-29T14:37:04.424Z,17.40
2022-12-29T14:39:43.164Z,17.40
2022-12-29T14:42:20.290Z,17.40
2022-12-29T14:45:11.526Z,17.40
2022-12-29T14:47:49.414Z,17.30
2022-12-29T14:50:35.985Z,17.30
2022-12-29T14:53:44.692Z,17.30
2022-12-29T14:56:21.421Z,17.30
2022-12-29T14:58:55.448Z,17.30
2022-12-29T15:01:41.958Z,17.20
2022-12-29T15:04:26.354Z,17.20
2022-12-29T15:07:00.743Z,17.20
2022-12-29T15:09:40.539Z,17.20
2022-12-29T15:12:22.429Z,17.20
2022-12-29T15:14:57.690Z,17.20
2022-12-29T15:17:35.650Z,17.20
2022-12-29T15:20:31.128Z,17.20
2022-12-29T15:23:12.183Z,17.20
2022-12-29T15:25:52.233Z,17.20
2022-12-29T15:28:26.004Z,17.10
2022-12-29T15:31:05.374Z,17.10
2022-12-29T15:33:42.012Z,17.10
2022-12-29T15:36:24.676Z,17.10
2022-12-29T15:39:00.385Z,17.10
2022-12-29T15:42:02.505Z,17.10
2022-12-29T15:44:45.521Z,17.00
2022-12-29T15:47:23.646Z,17.00
2022-12-29T15:50:02.980Z,17.00
2022-12-29T15:53:01.836Z,17.00
2022-12-29T15:55:39.658Z,17.00
2022-12-29T15:58:24.509Z,17.00
2022-12-29T16:01:02.264Z,17.00
2022-12-29T16:03:37.537Z,17.00
2022-12-29T16:06:45.274Z,17.00
2022-12-29T16:09:21.016Z,17.00
2022-12-29T16:11:56.266Z,17.00
2022-12-29T16:14:39.479Z,17.00
2022-12-29T16:17:17.056Z,17.00
2022-12-29T16:19:53.968Z,16.90
2022-12-29T16:22:36.200Z,16.90
2022-12-29T16:25:23.021Z,17.00
2022-12-29T16:27:55.900Z,17.00
2022-12-29T16:30:34.176Z,17.00
2022-12-29T16:33:07.390Z,17.00
2022-12-29T16:35:49.041Z,17.00
2022-12-29T16:38:24.849Z,17.00
2022-12-29T16:41:05.140Z,17.00
2022-12-29T16:43:43.561Z,17.00
2022-12-29T16:46:28.773Z,17.00
2022-12-29T16:49:01.479Z,17.00
2022-12-29T16:51:37.609Z,17.00
2022-12-29T16:54:21.030Z,17.00
2022-12-29T16:56:53.976Z,17.00
2022-12-29T16:59:38.731Z,17.00
2022-12-29T17:02:20.206Z,17.00
2022-12-29T17:04:54.155Z,17.00
2022-12-29T17:07:28.854Z,17.00
2022-12-29T17:10:01.412Z,17.00
2022-12-29T17:12:35.788Z,17.00
2022-12-29T17:15:27.810Z,16.90
2022-12-29T17:18:01.479Z,16.90
2022-12-29T17:20:34.154Z,16.90
2022-12-29T17:23:19.750Z,16.90
2022-12-29T17:25:57.369Z,16.90
2022-12-29T17:28:32.598Z,16.90
2022-12-29T17:31:07.939Z,16.90
2022-12-29T17:33:42.952Z,16.90
2022-12-29T17:36:15.868Z,16.90
2022-12-29T17:38:48.500Z,16.90
2022-12-29T17:41:21.117Z,16.90
2022-12-29T17:43:53.732Z,16.90
2022-12-29T17:46:26.331Z,16.90
2022-12-29T17:48:59.103Z,16.90
2022-12-29T17:51:31.704Z,16.90
2022-12-29T17:54:04.362Z,16.80
2022-12-29T17:56:36.859Z,16.80
2022-12-29T17:59:14.464Z,16.80
2022-12-29T18:01:49.095Z,16.80
2022-12-29T18:04:21.732Z,16.80
2022-12-29T18:06:54.335Z,16.80
2022-12-29T18:09:26.945Z,16.80
2022-12-29T18:11:59.582Z,16.70
2022-12-29T18:14:32.147Z,16.70
2022-12-29T18:17:13.604Z,16.70
2022-12-29T18:19:46.352Z,16.70
2022-12-29T18:22:18.887Z,16.70
2022-12-29T18:24:53.410Z,16.60
2022-12-29T18:27:26.924Z,16.60
2022-12-29T18:29:59.422Z,16.60
2022-12-29T18:32:31.900Z,16.60
2022-12-29T18:35:04.820Z,16.60
2022-12-29T18:37:37.422Z,16.60
2022-12-29T18:40:13.102Z,16.50
2022-12-29T18:42:46.394Z,16.50
2022-12-29T18:45:20.381Z,16.50
2022-12-29T18:47:53.293Z,16.50
2022-12-29T18:50:26.158Z,16.50
2022-12-29T18:53:03.755Z,16.40
2022-12-29T18:55:42.476Z,16.40
2022-12-29T18:58:21.638Z,16.40
2022-12-29T19:00:56.150Z,16.40
2022-12-29T19:03:29.886Z,16.40
2022-12-29T19:06:07.395Z,16.40
2022-12-29T19:08:51.695Z,16.40
2022-12-29T19:11:30.374Z,16.40
2022-12-29T19:14:02.913Z,16.30
2022-12-29T19:16:35.536Z,16.30
2022-12-29T19:19:10.222Z,16.30
2022-12-29T19:21:43.307Z,16.30
2022-12-29T19:24:16.012Z,16.30
2022-12-29T19:26:49.748Z,16.30
2022-12-29T19:29:23.638Z,16.30
2022-12-29T19:31:56.239Z,16.30
2022-12-29T19:34:28.818Z,16.30
2022-12-29T19:37:01.462Z,16.20
2022-12-29T19:39:33.973Z,16.20
2022-12-29T19:42:07.100Z,16.20
2022-12-29T19:44:39.631Z,16.20
2022-12-29T19:47:14.159Z,16.20
2022-12-29T19:49:46.887Z,16.20
2022-12-29T19:52:21.726Z,16.10
2022-12-29T19:54:54.870Z,16.10
2022-12-29T19:57:27.693Z,16.10
2022-12-29T20:00:00.590Z,16.10
2022-12-29T20:02:34.498Z,16.10
2022-12-29T20:05:08.641Z,16.10
2022-12-29T20:07:41.286Z,16.10
2022-12-29T20:10:14.025Z,16.10
2022-12-29T20:12:46.584Z,16.00
2022-12-29T20:15:20.103Z,16.00
2022-12-29T20:20:45.286Z,16.00
2022-12-29T20:23:17.810Z,16.00
2022-12-29T20:25:56.677Z,15.90
2022-12-29T20:28:29.896Z,15.90
2022-12-29T20:31:04.205Z,15.90
2022-12-29T20:33:36.789Z,15.90
2022-12-29T20:36:13.149Z,15.90
2022-12-29T20:38:47.302Z,15.90
2022-12-29T20:41:21.381Z,15.90
2022-12-29T20:43:53.894Z,15.90
2022-12-29T20:46:32.865Z,15.80
2022-12-29T20:49:08.218Z,15.80
2022-12-29T20:54:39.405Z,15.80
2022-12-29T20:57:12.548Z,15.80
2022-12-29T20:59:45.126Z,15.80
2022-12-29T21:02:23.002Z,15.80
2022-12-29T21:07:48.509Z,15.80
2022-12-29T21:10:26.095Z,15.80
2022-12-29T21:12:58.761Z,15.80
2022-12-29T21:15:33.043Z,15.80
2022-12-29T21:18:05.739Z,15.70
2022-12-29T21:20:38.402Z,15.80
2022-12-29T21:23:14.791Z,15.70
2022-12-29T21:25:47.337Z,15.80
2022-12-29T21:28:20.773Z,15.70
2022-12-29T21:30:53.807Z,15.70
2022-12-29T21:33:26.712Z,15.70
2022-12-29T21:36:05.880Z,15.70
2022-12-29T21:38:38.465Z,15.70
2022-12-29T21:41:15.099Z,15.70
2022-12-29T21:44:07.347Z,15.60
2022-12-29T21:46:42.227Z,15.60
2022-12-29T21:49:14.939Z,15.60
2022-12-29T21:51:51.321Z,15.60
2022-12-29T21:54:44.810Z,15.60
2022-12-29T21:57:37.692Z,15.60
2022-12-29T22:00:29.441Z,15.50
2022-12-29T22:03:23.527Z,15.60
2022-12-29T22:06:14.927Z,15.50
2022-12-29T22:09:05.639Z,15.50
2022-12-29T22:11:56.399Z,15.50
2022-12-29T22:14:28.966Z,15.40
2022-12-29T22:17:01.710Z,15.40
2022-12-29T22:19:34.340Z,15.40
2022-12-29T22:22:06.873Z,15.40
2022-12-29T22:24:39.406Z,15.40
2022-12-29T22:27:12.251Z,15.40
2022-12-29T22:29:45.632Z,15.30
2022-12-29T22:32:18.193Z,15.30
2022-12-29T22:34:50.946Z,15.30
2022-12-29T22:37:24.208Z,15.30
2022-12-29T22:39:57.138Z,15.30
2022-12-29T22:42:29.753Z,15.20
2022-12-29T22:45:02.384Z,15.20
2022-12-29T22:47:35.269Z,15.20
2022-12-29T22:50:08.510Z,15.20
2022-12-29T22:52:40.952Z,15.20
2022-12-29T22:55:13.543Z,15.20
2022-12-29T22:57:46.065Z,15.20
2022-12-29T23:00:18.768Z,15.20
2022-12-29T23:02:51.546Z,15.10
2022-12-29T23:05:24.292Z,15.10
2022-12-29T23:07:56.909Z,15.10
2022-12-29T23:10:29.433Z,15.10
2022-12-29T23:13:04.139Z,15.10
2022-12-29T23:15:36.751Z,15.10
2022-12-29T23:18:10.723Z,15.10
2022-12-29T23:20:44.256Z,15.10
2022-12-29T23:23:48.811Z,15.00
2022-12-29T23:26:28.063Z,15.00
2022-12-29T23:29:02.198Z,15.00
2022-12-29T23:32:00.310Z,15.00
2022-12-29T23:34:32.836Z,15.00
2022-12-29T23:37:05.415Z,15.00
2022-12-29T23:39:38.020Z,15.00
2022-12-29T23:42:11.924Z,15.00
2022-12-29T23:44:44.435Z,15.00
2022-12-29T23:47:17.045Z,14.90
2022-12-29T23:49:49.642Z,14.90
2022-12-29T23:52:22.185Z,14.90
2022-12-29T23:54:54.789Z,14.90
2022-12-29T23:57:27.325Z,14.90
2022-12-29T23:59:59.876Z,14.80
